Time;durP1;ratioP1;P1;durP2;ratioP2;P2;SDS_P1;SDS_P2;PMS_P1;PMS_P2;Temp;Humidity;BMP_temperature;BMP_pressure;BME280_temperature;BME280_humidity;BME280_pressure;Samples;Min_cycle;Max_cycle;Signal;HPM_P1;HPM_P2
2021/01/09 00:01:05;;;;;;;9.37;7.00;;;-4.60;99.90;-6.40;96711.00;;;;5114513;28;20537;-78
2021/01/09 00:03:33;;;;;;;8.53;6.27;;;-4.70;99.90;-6.40;96713.00;;;;5113650;28;20483;-76
2021/01/09 00:06:02;;;;;;;7.63;5.93;;;-4.70;99.90;-6.50;96714.00;;;;5112352;28;20947;-78
2021/01/09 00:08:29;;;;;;;10.60;7.07;;;-4.70;99.90;-6.30;96730.00;;;;5114030;28;20480;-77
2021/01/09 00:10:58;;;;;;;10.90;6.97;;;-4.70;99.90;-6.20;96720.00;;;;5113557;28;20852;-77
2021/01/09 00:13:26;;;;;;;8.87;5.67;;;-4.70;99.90;-6.20;96733.00;;;;5113672;28;20468;-77
2021/01/09 00:15:53;;;;;;;8.13;6.00;;;-4.60;99.90;-6.20;96721.00;;;;5115342;28;20456;-77
2021/01/09 00:18:21;;;;;;;9.97;7.03;;;-4.50;99.90;-6.20;96724.00;;;;5114495;28;20494;-79
2021/01/09 00:20:48;;;;;;;7.87;6.63;;;-4.60;99.90;-6.20;96722.00;;;;5116278;28;20456;-78
2021/01/09 00:23:17;;;;;;;11.03;7.00;;;-4.60;99.90;-6.10;96728.00;;;;5114303;28;20477;-77
2021/01/09 00:25:44;;;;;;;9.73;7.43;;;-4.40;99.90;-6.00;96722.00;;;;5114197;28;20927;-78
2021/01/09 00:28:12;;;;;;;10.37;7.23;;;-4.50;99.90;-6.20;96704.00;;;;5114081;28;20949;-77
2021/01/09 00:30:39;;;;;;;11.20;7.13;;;-4.50;99.90;-6.30;96723.00;;;;5113886;28;20460;-78
2021/01/09 00:33:07;;;;;;;10.67;7.37;;;-4.50;99.90;-6.20;96721.00;;;;5114226;28;20472;-78
2021/01/09 00:35:34;;;;;;;7.13;5.93;;;-4.40;99.90;-6.10;96719.00;;;;5113387;28;20460;-78
2021/01/09 00:38:02;;;;;;;7.10;6.03;;;-4.50;99.90;-6.00;96725.00;;;;5114225;28;20452;-78
2021/01/09 00:40:30;;;;;;;9.27;6.20;;;-4.40;99.90;-6.10;96725.00;;;;5113895;28;20604;-78
2021/01/09 00:42:58;;;;;;;8.37;6.23;;;-4.50;99.90;-6.10;96721.00;;;;5103429;27;20506;-79
2021/01/09 00:45:25;;;;;;;7.77;6.23;;;-4.50;99.90;-5.90;96728.00;;;;5092093;28;20472;-77
2021/01/09 00:47:53;;;;;;;8.40;6.47;;;-4.00;99.90;-5.80;96723.00;;;;5109999;28;20582;-78
2021/01/09 00:50:21;;;;;;;7.67;5.63;;;-4.40;99.90;-5.70;96734.00;;;;5113521;28;20444;-77
2021/01/09 00:52:48;;;;;;;9.37;6.10;;;-4.30;99.90;-5.60;96742.00;;;;5113178;28;20468;-77
2021/01/09 00:55:16;;;;;;;10.27;6.23;;;-4.20;99.90;-5.80;96728.00;;;;5095907;28;20456;-77
2021/01/09 00:57:44;;;;;;;9.90;6.87;;;-4.20;99.90;-5.90;96743.00;;;;5091422;28;20447;-77
2021/01/09 01:00:13;;;;;;;6.90;5.50;;;-4.20;99.90;-5.90;96747.00;;;;5092523;28;20495;-78
2021/01/09 01:02:41;;;;;;;8.57;5.77;;;-4.30;99.90;-5.80;96750.00;;;;5091510;28;20486;-78
2021/01/09 01:05:11;;;;;;;8.83;5.63;;;-4.10;99.90;-5.90;96742.00;;;;5092736;28;20449;-77
2021/01/09 01:07:38;;;;;;;6.37;5.07;;;-4.20;99.90;-5.90;96751.00;;;;5091806;28;21016;-77
2021/01/09 01:10:07;;;;;;;12.03;5.90;;;-4.00;99.90;-5.90;96745.00;;;;5092251;28;20441;-77
2021/01/09 01:12:35;;;;;;;7.40;5.27;;;-4.30;99.90;-5.90;96751.00;;;;5092797;28;20469;-77
2021/01/09 01:15:05;;;;;;;8.83;5.50;;;-4.30;99.90;-5.90;96745.00;;;;5091525;28;20507;-77
2021/01/09 01:17:32;;;;;;;9.13;5.93;;;-4.30;99.90;-5.90;96751.00;;;;5090713;28;20456;-77
2021/01/09 01:20:00;;;;;;;7.23;5.30;;;-4.30;99.90;-5.80;96750.00;;;;5093380;28;20445;-78
2021/01/09 01:22:27;;;;;;;8.20;5.77;;;-3.20;99.90;-5.80;96751.00;;;;5093088;28;20527;-78
2021/01/09 01:24:55;;;;;;;7.70;5.63;;;-4.20;99.90;-5.70;96763.00;;;;5093393;28;20445;-77
2021/01/09 01:27:22;;;;;;;7.33;5.77;;;-4.20;99.90;-5.70;96749.00;;;;5092922;28;20485;-80
2021/01/09 01:29:50;;;;;;;8.30;5.90;;;-4.20;99.90;-5.60;96764.00;;;;5092214;28;20478;-78
2021/01/09 01:32:18;;;;;;;7.33;6.00;;;-4.20;99.90;-5.60;96760.00;;;;5092824;28;20815;-77
2021/01/09 01:34:46;;;;;;;8.17;6.47;;;-4.10;99.90;-5.60;96770.00;;;;5093288;28;20829;-77
2021/01/09 01:37:14;;;;;;;10.00;5.60;;;-3.80;99.90;-5.70;96754.00;;;;5092791;28;20445;-78
2021/01/09 01:39:41;;;;;;;9.00;6.53;;;-4.10;99.90;-5.90;96755.00;;;;5091611;28;20453;-78
2021/01/09 01:42:09;;;;;;;8.43;5.93;;;-4.10;99.90;-6.00;96761.00;;;;5093809;28;20865;-76
2021/01/09 01:44:36;;;;;;;9.60;4.97;;;-4.20;99.90;-6.20;96763.00;;;;5111285;28;20478;-77
2021/01/09 01:47:04;;;;;;;10.60;7.17;;;-4.20;99.90;-6.10;96758.00;;;;5110418;28;20511;-76
2021/01/09 01:49:33;;;;;;;9.93;6.33;;;-4.20;99.90;-6.20;96760.00;;;;5112516;28;20464;-78
2021/01/09 01:52:00;;;;;;;11.27;7.13;;;-4.40;99.90;-6.40;96756.00;;;;5111077;28;20448;-77
2021/01/09 01:54:28;;;;;;;10.53;6.93;;;-4.50;99.90;-6.40;96750.00;;;;5100603;28;21153;-78
2021/01/09 01:56:57;;;;;;;7.67;6.20;;;-4.60;99.90;-6.30;96757.00;;;;5090161;28;20449;-77
2021/01/09 01:59:25;;;;;;;8.40;6.70;;;-4.00;99.90;-6.40;96750.00;;;;5089775;28;20468;-77
2021/01/09 02:01:52;;;;;;;8.83;5.90;;;-4.70;99.90;-6.40;96755.00;;;;5089975;28;20460;-76
2021/01/09 02:04:21;;;;;;;11.87;7.67;;;-4.40;99.90;-6.40;96748.00;;;;5103577;28;20448;-77
2021/01/09 02:06:51;;;;;;;13.97;8.23;;;-6.40;99.90;-6.50;96750.00;;;;5110367;28;20440;-76
2021/01/09 02:09:23;;;;;;;16.33;11.20;;;-4.20;99.90;-6.40;96761.00;;;;5112294;28;20448;-79
2021/01/09 02:12:05;;;;;;;10.80;8.13;;;-4.80;99.90;-6.40;96757.00;;;;5111800;28;20441;-80
2021/01/09 02:14:40;;;;;;;11.47;8.40;;;-4.50;99.90;-6.30;96759.00;;;;5111482;28;20444;-78
2021/01/09 02:17:08;;;;;;;14.20;9.30;;;-4.70;99.90;-6.30;96751.00;;;;5112518;28;20901;-78
2021/01/09 02:19:39;;;;;;;19.27;11.20;;;-5.40;99.90;-6.40;96751.00;;;;5112939;28;20470;-80
2021/01/09 02:22:11;;;;;;;9.07;7.67;;;-4.60;99.90;-6.50;96750.00;;;;5111676;28;20935;-76
2021/01/09 02:24:40;;;;;;;12.97;6.70;;;-4.70;99.90;-6.70;96749.00;;;;5112825;28;20455;-77
2021/01/09 02:27:09;;;;;;;7.17;5.53;;;-4.80;99.90;-6.60;96753.00;;;;5111779;28;20486;-78
2021/01/09 02:29:41;;;;;;;8.27;7.33;;;-4.90;99.90;-6.60;96753.00;;;;5113869;28;20555;-77
2021/01/09 02:32:11;;;;;;;11.47;7.83;;;-4.90;99.90;-6.60;96756.00;;;;5113606;28;20527;-78
2021/01/09 02:34:45;;;;;;;9.77;7.67;;;-4.90;99.90;-6.50;96751.00;;;;5113407;28;20456;-78
2021/01/09 02:37:13;;;;;;;7.53;6.43;;;-4.80;99.90;-6.50;96748.00;;;;5112935;28;20777;-77
2021/01/09 02:39:41;;;;;;;9.17;6.17;;;-4.90;99.90;-6.40;96763.00;;;;5113023;28;20447;-78
2021/01/09 02:42:09;;;;;;;10.50;6.27;;;-4.80;99.90;-6.30;96758.00;;;;5109903;28;20814;-79
2021/01/09 02:44:38;;;;;;;11.10;6.40;;;-4.80;99.90;-6.40;96749.00;;;;5093044;28;20462;-78
2021/01/09 02:47:06;;;;;;;10.10;5.97;;;-4.40;99.90;-6.60;96750.00;;;;5102969;28;20483;-77
2021/01/09 02:49:34;;;;;;;4.97;4.50;;;-4.80;99.90;-6.80;96757.00;;;;5113319;28;20449;-78
2021/01/09 02:52:01;;;;;;;7.90;5.47;;;-4.90;99.90;-6.80;96758.00;;;;5113069;28;20942;-78
2021/01/09 02:54:29;;;;;;;11.00;7.20;;;-5.00;99.90;-6.90;96743.00;;;;5114571;28;20448;-79
2021/01/09 02:56:57;;;;;;;9.60;5.43;;;-5.00;99.90;-6.90;96743.00;;;;5116090;28;20451;-77
2021/01/09 02:59:25;;;;;;;9.77;5.73;;;-5.10;99.90;-7.00;96746.00;;;;5115733;28;20463;-77
2021/01/09 03:01:52;;;;;;;7.73;5.30;;;-5.10;99.90;-6.90;96748.00;;;;5115307;28;20452;-78
2021/01/09 03:04:20;;;;;;;7.17;4.90;;;-5.00;99.90;-7.00;96746.00;;;;5114950;28;20486;-78
2021/01/09 03:06:47;;;;;;;8.37;6.23;;;-4.40;99.90;-7.10;96749.00;;;;5115547;28;20436;-78
2021/01/09 03:09:15;;;;;;;6.30;5.13;;;-5.30;99.90;-7.10;96735.00;;;;5114692;28;20954;-77
2021/01/09 03:11:42;;;;;;;7.27;4.23;;;-5.30;99.90;-7.10;96750.00;;;;5115415;28;21143;-77
2021/01/09 03:14:11;;;;;;;8.03;6.40;;;-4.80;99.90;-7.00;96743.00;;;;5115559;28;20465;-77
2021/01/09 03:16:38;;;;;;;8.23;5.90;;;-5.30;99.90;-6.90;96748.00;;;;5115657;28;20444;-78
2021/01/09 03:19:06;;;;;;;7.53;5.83;;;-5.30;99.90;-6.60;96751.00;;;;5114158;28;20444;-78
2021/01/09 03:21:33;;;;;;;9.03;5.60;;;-4.80;99.90;-6.90;96739.00;;;;5115406;28;20480;-78
2021/01/09 03:24:01;;;;;;;6.83;5.17;;;-5.20;99.90;-7.00;96752.00;;;;5115099;28;20478;-77
2021/01/09 03:26:30;;;;;;;7.70;4.83;;;-5.20;99.90;-6.90;96756.00;;;;5116092;28;20452;-78
2021/01/09 03:28:58;;;;;;;7.07;4.60;;;-5.30;99.90;-6.80;96758.00;;;;5114789;28;20495;-77
2021/01/09 03:31:27;;;;;;;5.70;5.00;;;-5.20;99.90;-7.00;96758.00;;;;5115301;28;20483;-78
2021/01/09 03:33:55;;;;;;;5.73;4.73;;;-5.20;99.90;-7.00;96756.00;;;;5115991;28;20482;-77
2021/01/09 03:36:22;;;;;;;6.57;5.30;;;-5.30;99.90;-7.00;96753.00;;;;5115502;28;20452;-78
2021/01/09 03:38:50;;;;;;;7.57;6.10;;;-5.30;99.90;-7.10;96759.00;;;;5114161;28;20896;-78
2021/01/09 03:41:18;;;;;;;6.73;5.23;;;-5.30;99.90;-7.10;96768.00;;;;5114337;28;20443;-78
2021/01/09 03:43:45;;;;;;;7.33;5.83;;;-5.40;99.90;-6.90;96756.00;;;;5098434;28;20469;-77
2021/01/09 03:46:13;;;;;;;7.17;5.33;;;-5.30;99.90;-7.00;96760.00;;;;5098674;28;20448;-78
2021/01/09 03:48:41;;;;;;;6.37;4.47;;;-5.30;99.90;-7.00;96757.00;;;;5114955;28;20506;-78
2021/01/09 03:51:09;;;;;;;7.93;5.70;;;-5.30;99.90;-7.10;96758.00;;;;5115457;28;20440;-78
2021/01/09 03:53:36;;;;;;;10.33;6.17;;;-5.30;99.90;-7.30;96763.00;;;;5113590;28;20475;-78
2021/01/09 03:56:04;;;;;;;8.67;5.53;;;-5.40;99.90;-7.30;96763.00;;;;5114339;28;20451;-77
2021/01/09 03:58:32;;;;;;;9.10;6.13;;;-5.50;99.90;-7.10;96766.00;;;;5114207;28;20448;-78
2021/01/09 04:00:59;;;;;;;6.67;5.07;;;-5.50;99.90;-7.00;96760.00;;;;5113639;28;20448;-77
2021/01/09 04:03:27;;;;;;;7.50;5.27;;;-5.40;99.90;-7.00;96765.00;;;;5112637;28;20546;-78
2021/01/09 04:05:56;;;;;;;4.97;4.50;;;-5.40;99.90;-7.00;96765.00;;;;5113720;28;20478;-78
2021/01/09 04:08:23;;;;;;;6.50;4.50;;;-5.40;99.90;-7.20;96773.00;;;;5114778;28;20484;-78
2021/01/09 04:10:51;;;;;;;7.80;4.40;;;-5.30;99.90;-7.60;96767.00;;;;5115508;28;20440;-78
2021/01/09 04:13:18;;;;;;;5.53;4.03;;;-5.10;99.90;-7.50;96764.00;;;;5109134;27;20491;-78
2021/01/09 04:15:46;;;;;;;5.53;3.73;;;-5.60;99.90;-7.40;96767.00;;;;5114785;28;20459;-77
2021/01/09 04:18:13;;;;;;;5.10;3.93;;;-5.60;99.90;-7.40;96775.00;;;;5114639;28;20451;-78
2021/01/09 04:20:41;;;;;;;6.53;4.93;;;-5.20;99.90;-7.50;96776.00;;;;5115848;28;20966;-79
2021/01/09 04:23:09;;;;;;;8.03;4.60;;;-5.70;99.90;-7.50;96780.00;;;;5115205;28;20578;-78
2021/01/09 04:25:37;;;;;;;5.90;4.63;;;-5.70;99.90;-7.40;96782.00;;;;5115635;28;20464;-78
2021/01/09 04:28:04;;;;;;;7.67;5.40;;;-5.70;99.90;-7.20;96784.00;;;;5115067;28;20479;-78
2021/01/09 04:30:32;;;;;;;7.80;5.00;;;-5.70;99.90;-7.20;96794.00;;;;5116091;28;20456;-77
2021/01/09 04:32:59;;;;;;;5.67;4.63;;;-5.60;99.90;-7.30;96797.00;;;;5115141;28;20828;-78
2021/01/09 04:35:27;;;;;;;7.23;5.43;;;-5.60;99.90;-7.40;96783.00;;;;5115465;28;20456;-78
2021/01/09 04:37:55;;;;;;;6.43;4.53;;;-5.60;99.90;-7.50;96777.00;;;;5114880;28;20464;-76
2021/01/09 04:40:23;;;;;;;5.13;4.20;;;-5.70;99.90;-7.40;96789.00;;;;5115808;28;20808;-77
2021/01/09 04:42:51;;;;;;;8.13;5.40;;;-5.70;99.90;-7.50;96785.00;;;;5107119;28;20552;-77
2021/01/09 04:45:19;;;;;;;6.40;5.00;;;-5.70;99.90;-7.40;96794.00;;;;5094363;28;20456;-78
2021/01/09 04:47:48;;;;;;;5.70;4.17;;;-5.70;99.90;-7.40;96785.00;;;;5111280;28;20491;-77
2021/01/09 04:50:16;;;;;;;7.00;4.60;;;-5.70;99.90;-7.40;96795.00;;;;5116285;28;20448;-79
2021/01/09 04:52:45;;;;;;;4.67;4.17;;;-5.70;99.90;-7.20;96798.00;;;;5115714;28;20471;-79
2021/01/09 04:55:13;;;;;;;5.40;4.17;;;-5.60;99.90;-7.10;96799.00;;;;5113960;28;20470;-77
2021/01/09 04:57:41;;;;;;;7.77;4.87;;;-5.60;99.90;-7.10;96799.00;;;;5112893;28;20455;-77
2021/01/09 05:00:11;;;;;;;4.93;4.43;;;-5.50;99.90;-7.40;96790.00;;;;5111553;28;20456;-77
2021/01/09 05:02:39;;;;;;;5.70;4.27;;;-5.50;99.90;-7.50;96785.00;;;;5111742;28;20472;-78
2021/01/09 05:05:07;;;;;;;5.27;4.47;;;-5.60;99.90;-7.60;96788.00;;;;5113902;28;20539;-78
2021/01/09 05:07:35;;;;;;;5.10;4.17;;;-5.70;99.90;-7.60;96791.00;;;;5114586;28;20483;-77
2021/01/09 05:10:05;;;;;;;6.87;4.63;;;-5.70;99.90;-7.60;96791.00;;;;5114783;28;20447;-78
2021/01/09 05:12:35;;;;;;;7.30;4.40;;;-5.80;99.90;-7.60;96792.00;;;;5112078;28;20502;-77
2021/01/09 05:15:05;;;;;;;6.33;4.47;;;-5.80;99.90;-7.60;96794.00;;;;5112245;28;20451;-77
2021/01/09 05:17:34;;;;;;;7.30;5.27;;;-5.80;99.90;-7.50;96793.00;;;;5109816;28;20459;-77
2021/01/09 05:20:04;;;;;;;4.30;3.73;;;-5.80;99.90;-7.40;96794.00;;;;5111895;28;20483;-77
2021/01/09 05:22:31;;;;;;;6.77;4.50;;;-5.80;99.90;-7.50;96801.00;;;;5114045;28;20468;-76
2021/01/09 05:25:01;;;;;;;7.47;4.27;;;-5.80;99.90;-7.60;96789.00;;;;5111615;28;20482;-75
2021/01/09 05:27:29;;;;;;;5.27;4.07;;;-5.60;99.90;-7.80;96793.00;;;;5110483;28;20503;-78
2021/01/09 05:29:58;;;;;;;7.10;4.23;;;-5.90;99.90;-7.90;96788.00;;;;5112085;28;20467;-80
2021/01/09 05:32:26;;;;;;;8.67;4.43;;;-6.00;99.90;-7.70;96788.00;;;;5111931;28;20487;-76
2021/01/09 05:34:55;;;;;;;4.97;4.47;;;-6.00;99.90;-7.70;96801.00;;;;5111815;28;20443;-77
2021/01/09 05:37:25;;;;;;;7.63;4.47;;;-5.90;99.90;-7.60;96797.00;;;;5112389;28;20452;-78
2021/01/09 05:39:56;;;;;;;4.40;3.73;;;-5.70;99.90;-7.90;96805.00;;;;5114879;28;20451;-77
2021/01/09 05:42:26;;;;;;;5.63;4.10;;;-6.00;99.90;-7.80;96816.00;;;;5108949;28;20489;-77
2021/01/09 05:44:56;;;;;;;5.97;4.20;;;-6.00;99.90;-7.90;96808.00;;;;5099876;28;20472;-78
2021/01/09 05:47:27;;;;;;;5.43;4.20;;;-6.10;99.90;-7.90;96816.00;;;;5104883;28;20460;-77
2021/01/09 05:49:57;;;;;;;6.20;3.73;;;-6.10;99.90;-7.80;96810.00;;;;5105630;28;20441;-78
2021/01/09 05:52:26;;;;;;;6.05;4.07;;;-6.10;99.90;-7.70;96818.00;;;;5114932;28;20563;-80
2021/01/09 05:54:58;;;;;;;9.17;5.40;;;-6.00;99.90;-7.70;96823.00;;;;5109433;28;20218;-78
2021/01/09 05:57:29;;;;;;;4.37;4.00;;;-5.90;99.90;-7.60;96834.00;;;;5112559;28;20460;-81
2021/01/09 05:59:58;;;;;;;6.93;5.00;;;-6.00;99.90;-7.60;96826.00;;;;5113157;28;20467;-81
2021/01/09 06:02:27;;;;;;;7.73;5.03;;;-5.90;99.90;-7.70;96832.00;;;;5111946;28;20484;-80
2021/01/09 06:04:59;;;;;;;6.60;4.33;;;-5.90;99.90;-7.70;96831.00;;;;5107038;28;20477;-80
2021/01/09 06:07:34;;;;;;;9.63;5.20;;;-5.90;99.90;-7.60;96837.00;;;;5114715;28;20437;-79
2021/01/09 06:10:09;;;;;;;7.13;4.90;;;-5.90;99.90;-7.50;96838.00;;;;5115018;28;20447;-79
2021/01/09 06:12:42;;;;;;;5.70;4.70;;;-5.90;99.90;-7.60;96846.00;;;;5114121;28;20467;-80
2021/01/09 06:15:15;;;;;;;9.80;6.23;;;-5.90;99.90;-7.50;96852.00;;;;5113887;28;20954;-79
2021/01/09 06:17:44;;;;;;;7.80;5.33;;;-5.80;99.90;-7.70;96850.00;;;;5113025;28;20484;-79
2021/01/09 06:20:13;;;;;;;7.67;5.40;;;-5.90;99.90;-7.70;96839.00;;;;5111373;28;20946;-81
2021/01/09 06:22:41;;;;;;;6.73;3.63;;;-5.90;99.90;-7.70;96847.00;;;;5113477;28;20848;-78
2021/01/09 06:25:12;;;;;;;4.70;3.83;;;-5.90;99.90;-7.60;96849.00;;;;5114886;28;20448;-80
2021/01/09 06:27:44;;;;;;;4.80;3.90;;;-5.90;99.90;-7.60;96860.00;;;;5112869;28;20484;-79
2021/01/09 06:30:15;;;;;;;4.67;4.27;;;-5.90;99.90;-7.60;96862.00;;;;5117689;28;20448;-77
2021/01/09 06:32:54;;;;;;;7.17;4.87;;;-5.90;99.90;-7.90;96856.00;;;;5115740;28;20475;-79
2021/01/09 06:35:22;;;;;;;6.27;4.80;;;-5.90;99.90;-7.90;96848.00;;;;5114562;28;20448;-78
2021/01/09 06:37:49;;;;;;;8.07;4.43;;;-5.70;99.90;-7.70;96867.00;;;;5115394;28;20448;-80
2021/01/09 06:40:17;;;;;;;5.37;3.80;;;-6.00;99.90;-7.40;96865.00;;;;5116343;28;20447;-78
2021/01/09 06:42:49;;;;;;;5.50;4.70;;;-5.90;99.90;-7.80;96868.00;;;;5109099;28;20464;-81
2021/01/09 06:45:16;;;;;;;11.33;8.37;;;-5.90;99.90;-7.90;96866.00;;;;5097423;28;20937;-80
2021/01/09 06:47:58;;;;;;;10.77;6.67;;;-6.00;99.90;-7.90;96877.00;;;;5113064;28;20585;-78
2021/01/09 06:50:34;;;;;;;7.10;5.17;;;-6.00;99.90;-8.00;96885.00;;;;5118205;28;20505;-78
2021/01/09 06:53:04;;;;;;;5.67;4.27;;;-6.10;99.90;-8.10;96889.00;;;;5117833;28;20468;-80
2021/01/09 06:56:08;;;;;;;7.30;5.03;;;-6.20;99.90;-8.20;96888.00;;;;5100500;28;20468;-80
2021/01/09 06:58:37;;;;;;;4.00;3.23;;;-6.30;99.90;-8.10;96893.00;;;;5107269;28;20472;-80
2021/01/09 07:01:21;;;;;;;5.67;3.93;;;-6.30;99.90;-8.10;96891.00;;;;5117987;28;20448;-79
2021/01/09 07:03:49;;;;;;;8.17;5.77;;;-6.30;99.90;-8.20;96893.00;;;;5117978;28;20494;-79
2021/01/09 07:06:53;;;;;;;4.97;4.47;;;-6.30;99.90;-8.00;96885.00;;;;5117716;28;20448;-78
2021/01/09 07:09:24;;;;;;;8.38;6.10;;;-6.30;99.90;-7.90;96892.00;;;;5107840;28;20491;-79
2021/01/09 07:11:55;;;;;;;7.87;5.63;;;-6.20;99.90;-8.00;96890.00;;;;5116762;28;20569;-79
2021/01/09 07:14:23;;;;;;;9.70;4.73;;;-6.20;99.90;-7.90;96897.00;;;;5117155;28;20505;-78
2021/01/09 07:16:51;;;;;;;7.57;5.80;;;-6.20;99.90;-7.80;96904.00;;;;5114873;28;20458;-78
2021/01/09 07:19:26;;;;;;;5.27;4.20;;;-5.70;99.90;-7.60;96913.00;;;;5114232;28;20459;-78
2021/01/09 07:21:54;;;;;;;5.77;4.90;;;-6.00;99.90;-7.40;96915.00;;;;5114987;28;20456;-78
2021/01/09 07:24:24;;;;;;;5.20;4.47;;;-5.90;99.90;-7.30;96902.00;;;;5110501;27;20452;-77
2021/01/09 07:26:52;;;;;;;6.30;3.30;;;-5.80;99.90;-7.20;96906.00;;;;5115312;28;21042;-78
2021/01/09 07:29:27;;;;;;;7.40;4.93;;;-5.40;99.90;-7.20;96896.00;;;;5115265;28;21078;-78
2021/01/09 07:31:54;;;;;;;5.57;4.63;;;-5.60;99.90;-7.30;96908.00;;;;5114222;28;20470;-78
2021/01/09 07:34:27;;;;;;;6.90;5.13;;;-5.60;99.90;-7.30;96909.00;;;;5114809;28;20436;-76
2021/01/09 07:36:55;;;;;;;4.73;3.60;;;-5.30;99.90;-7.30;96899.00;;;;5110014;28;20561;-77
2021/01/09 07:39:24;;;;;;;7.47;5.57;;;-5.40;99.90;-7.50;96897.00;;;;5105951;28;20468;-76
2021/01/09 07:41:52;;;;;;;8.73;5.40;;;-5.60;99.90;-7.30;96901.00;;;;5107687;28;21089;-75
2021/01/09 07:44:21;;;;;;;6.40;5.00;;;-5.70;99.90;-7.30;96904.00;;;;5112499;28;20452;-77
2021/01/09 07:46:55;;;;;;;10.93;5.33;;;-5.60;99.90;-7.40;96904.00;;;;5105000;28;20486;-78
2021/01/09 07:49:28;;;;;;;7.27;5.93;;;-5.60;99.90;-7.30;96916.00;;;;5110416;28;20510;-78
2021/01/09 07:52:02;;;;;;;8.70;5.20;;;-5.60;99.90;-7.20;96920.00;;;;5119806;27;20479;-76
2021/01/09 07:54:40;;;;;;;10.57;6.40;;;-5.60;99.90;-7.20;96916.00;;;;5120153;27;20464;-78
2021/01/09 07:57:23;;;;;;;6.13;4.63;;;-5.50;99.90;-7.10;96904.00;;;;5112806;28;20451;-78
2021/01/09 08:00:04;;;;;;;9.27;4.70;;;-5.50;99.90;-7.10;96902.00;;;;5111510;28;20460;-77
2021/01/09 08:02:33;;;;;;;8.90;4.30;;;-5.40;99.90;-7.10;96902.00;;;;5115228;27;20488;-78
2021/01/09 08:05:11;;;;;;;7.87;5.80;;;-5.40;99.90;-7.00;96905.00;;;;5119058;27;21167;-76
2021/01/09 08:07:41;;;;;;;7.53;5.13;;;-5.40;99.90;-7.00;96913.00;;;;5116151;27;20471;-77
2021/01/09 08:10:25;;;;;;;10.67;4.93;;;-5.30;99.90;-6.70;96921.00;;;;5114582;27;20448;-76
2021/01/09 08:12:58;;;;;;;5.00;4.20;;;-5.20;99.90;-6.80;96915.00;;;;5113283;28;20514;-76
2021/01/09 08:15:28;;;;;;;7.73;5.00;;;-5.00;99.90;-6.50;96922.00;;;;5114288;28;20825;-76
2021/01/09 08:17:59;;;;;;;7.23;5.93;;;-4.60;99.90;-6.60;96917.00;;;;5093076;28;20445;-77
2021/01/09 08:20:28;;;;;;;7.00;5.07;;;-5.00;99.90;-6.70;96925.00;;;;5109833;28;20456;-77
2021/01/09 08:22:58;;;;;;;10.07;6.77;;;-5.00;99.90;-6.60;96925.00;;;;5111509;28;20468;-79
2021/01/09 08:25:27;;;;;;;18.73;11.20;;;-4.70;99.90;-6.50;96925.00;;;;5115065;28;20443;-78
2021/01/09 08:27:57;;;;;;;12.63;8.03;;;-4.90;99.90;-6.40;96928.00;;;;5106795;28;20480;-79
2021/01/09 08:30:27;;;;;;;9.23;6.97;;;-4.80;99.90;-6.40;96927.00;;;;5115240;28;20449;-78
2021/01/09 08:33:06;;;;;;;8.33;5.70;;;-4.20;99.90;-6.40;96933.00;;;;5114514;28;20503;-78
2021/01/09 08:35:35;;;;;;;7.43;5.57;;;-4.70;99.90;-6.20;96941.00;;;;5114508;28;21134;-79
2021/01/09 08:38:04;;;;;;;6.30;4.23;;;-4.70;99.90;-6.20;96944.00;;;;5114952;28;20447;-79
2021/01/09 08:40:32;;;;;;;6.03;5.37;;;-4.60;99.90;-6.00;96950.00;;;;5115528;28;20449;-78
2021/01/09 08:43:04;;;;;;;8.50;5.20;;;-4.50;99.90;-5.90;96946.00;;;;5109932;28;20472;-77
2021/01/09 08:45:53;;;;;;;9.90;6.17;;;-4.40;99.90;-5.90;96932.00;;;;5110602;28;20484;-78
2021/01/09 08:48:23;;;;;;;8.53;5.27;;;-4.40;99.90;-6.00;96930.00;;;;5106962;28;20484;-77
2021/01/09 08:51:03;;;;;;;12.73;6.53;;;-4.40;99.90;-6.00;96936.00;;;;5112860;28;20452;-79
2021/01/09 08:53:45;;;;;;;6.53;4.93;;;-4.30;99.90;-5.70;96930.00;;;;5114019;28;20488;-78
2021/01/09 08:56:15;;;;;;;9.63;5.00;;;-4.30;99.90;-5.50;96944.00;;;;5113936;28;20923;-79
2021/01/09 08:58:43;;;;;;;7.27;5.20;;;-4.20;99.90;-5.60;96931.00;;;;5114684;28;20467;-78
2021/01/09 09:01:14;;;;;;;5.37;4.87;;;-4.10;99.90;-5.50;96922.00;;;;5114960;28;20455;-79
2021/01/09 09:03:45;;;;;;;10.73;8.07;;;-4.00;99.90;-5.40;96929.00;;;;5114621;28;20476;-78
2021/01/09 09:06:16;;;;;;;15.17;13.77;;;-3.90;99.90;-5.30;96921.00;;;;5114053;28;20448;-79
2021/01/09 09:08:44;;;;;;;23.20;20.73;;;-3.80;99.90;-5.20;96918.00;;;;5114166;28;20496;-79
2021/01/09 09:11:15;;;;;;;25.10;22.43;;;-3.80;99.90;-4.90;96927.00;;;;5114227;28;20459;-77
2021/01/09 09:13:43;;;;;;;22.30;19.50;;;-3.60;99.90;-4.70;96930.00;;;;5113345;28;20464;-78
2021/01/09 09:16:19;;;;;;;10.67;8.30;;;-3.50;99.90;-4.30;96927.00;;;;5112669;27;20446;-79
2021/01/09 09:18:48;;;;;;;15.13;8.43;;;-3.30;99.90;-4.30;96937.00;;;;5118644;27;20484;-79
2021/01/09 09:21:19;;;;;;;19.10;10.47;;;-2.80;99.90;-4.40;96936.00;;;;5119530;27;20740;-78
2021/01/09 09:23:53;;;;;;;20.20;13.40;;;-3.00;99.90;-4.30;96944.00;;;;5118714;27;20472;-79
2021/01/09 09:26:20;;;;;;;16.60;9.77;;;-2.90;99.90;-4.00;96934.00;;;;5106789;28;21006;-78
2021/01/09 09:28:51;;;;;;;20.93;14.60;;;-2.80;99.90;-3.70;96936.00;;;;5105608;28;20489;-80
2021/01/09 09:31:27;;;;;;;26.30;14.60;;;-2.60;99.90;-3.80;96936.00;;;;5102920;28;20452;-79
2021/01/09 09:34:01;;;;;;;28.50;16.47;;;-2.40;99.90;-4.10;96920.00;;;;5108279;28;20480;-79
2021/01/09 09:36:31;;;;;;;20.50;12.50;;;-2.50;99.90;-4.00;96923.00;;;;5108281;28;20498;-77
2021/01/09 09:39:24;;;;;;;15.60;10.63;;;-2.40;99.90;-4.00;96921.00;;;;5102891;27;20476;-80
2021/01/09 09:41:57;;;;;;;45.03;31.77;;;-2.50;99.90;-3.90;96916.00;;;;5112208;28;20480;-81
2021/01/09 09:44:42;;;;;;;30.87;27.63;;;-2.40;99.90;-4.00;96914.00;;;;5115028;28;20456;-79
2021/01/09 09:47:25;;;;;;;43.97;27.63;;;-2.50;99.90;-3.80;96921.00;;;;5110347;28;20466;-78
2021/01/09 09:50:02;;;;;;;20.57;12.80;;;-2.30;99.90;-3.80;96912.00;;;;5109116;28;20511;-78
2021/01/09 09:52:32;;;;;;;8.80;6.83;;;-2.30;99.90;-3.50;96903.00;;;;5063379;28;20497;-79
2021/01/09 09:55:04;;;;;;;9.67;5.90;;;-2.20;99.90;-3.40;96891.00;;;;5090366;28;145327;-79
2021/01/09 09:57:32;;;;;;;8.77;5.80;;;-2.10;99.90;-3.20;96890.00;;;;5095072;28;20449;-79
2021/01/09 10:00:08;;;;;;;7.67;6.53;;;-2.00;99.90;-3.00;96893.00;;;;5091993;28;20918;-80
2021/01/09 10:02:36;;;;;;;9.77;7.00;;;-1.80;99.90;-2.70;96892.00;;;;5076170;28;20465;-79
2021/01/09 10:05:12;;;;;;;5.80;5.00;;;-1.60;99.90;-2.30;96894.00;;;;5083703;28;20469;-77
2021/01/09 10:07:41;;;;;;;11.23;7.47;;;-1.40;99.90;-2.20;96893.00;;;;5090438;28;20460;-78
2021/01/09 10:10:16;;;;;;;11.03;6.03;;;-1.20;99.90;-2.10;96893.00;;;;5081486;28;20488;-78
2021/01/09 10:12:54;;;;;;;8.03;5.53;;;-1.00;99.90;-1.90;96885.00;;;;5091272;28;20476;-82
2021/01/09 10:15:22;;;;;;;6.90;5.47;;;-0.90;99.90;-1.90;96879.00;;;;5091705;28;20452;-78
2021/01/09 10:17:52;;;;;;;7.13;5.57;;;-0.70;99.90;-1.60;96873.00;;;;5089872;28;20536;-77
2021/01/09 10:20:20;;;;;;;8.67;5.37;;;-0.60;99.90;-1.30;96873.00;;;;5091984;28;20548;-78
2021/01/09 10:22:48;;;;;;;6.83;4.67;;;-0.40;99.90;-0.90;96881.00;;;;5090624;28;20564;-78
2021/01/09 10:25:16;;;;;;;5.93;4.27;;;-0.10;99.90;-0.40;96879.00;;;;5091233;28;20452;-79
2021/01/09 10:27:44;;;;;;;5.60;3.60;;;0.10;99.90;0.20;96881.00;;;;5089991;28;20445;-79
2021/01/09 10:30:13;;;;;;;5.07;4.10;;;0.50;99.90;0.60;96882.00;;;;5091747;28;20850;-79
2021/01/09 10:32:41;;;;;;;4.97;3.57;;;1.00;99.90;1.40;96881.00;;;;5091537;28;20477;-80
2021/01/09 10:35:11;;;;;;;7.63;3.80;;;1.60;99.90;1.80;96877.00;;;;5091969;28;20536;-79
2021/01/09 10:37:38;;;;;;;6.53;4.23;;;2.30;99.90;2.20;96868.00;;;;5089590;28;20911;-79
2021/01/09 10:40:09;;;;;;;7.20;3.53;;;2.80;99.90;3.00;96884.00;;;;5089210;28;20210;-76
2021/01/09 10:42:36;;;;;;;5.47;3.47;;;3.50;99.90;3.30;96888.00;;;;5092509;28;20239;-78
2021/01/09 10:45:05;;;;;;;4.77;3.43;;;4.10;99.10;3.50;96880.00;;;;5087973;28;20199;-78
2021/01/09 10:47:33;;;;;;;4.83;3.43;;;4.60;93.00;3.50;96867.00;;;;5085550;28;20222;-78
2021/01/09 10:50:01;;;;;;;4.40;3.27;;;5.40;89.50;3.80;96866.00;;;;5085888;28;20698;-79
2021/01/09 10:52:28;;;;;;;3.07;2.77;;;5.10;83.90;3.70;96873.00;;;;5086149;28;20243;-79
2021/01/09 10:54:56;;;;;;;4.07;2.80;;;5.20;81.50;4.40;96866.00;;;;5085151;28;20215;-79
2021/01/09 10:57:24;;;;;;;5.30;3.67;;;5.50;81.30;4.20;96864.00;;;;5088676;28;20199;-78
2021/01/09 10:59:52;;;;;;;5.23;2.70;;;5.60;77.90;4.60;96857.00;;;;5089346;28;20203;-78
2021/01/09 11:02:20;;;;;;;4.43;4.03;;;6.00;73.70;5.40;96851.00;;;;5089038;28;20230;-77
2021/01/09 11:04:48;;;;;;;11.83;3.60;;;6.40;75.60;5.50;96858.00;;;;5088748;28;20210;-77